This is the latest recevied weather packets stored in our database for station/object CE1JFB-10. If no packets are shown the sender has not sent any weather packets the latest 10 day(s).
| Time | Temp. | Humidity | Pressure | Rain* | Wind** | Luminosity | Snow |
|---|---|---|---|---|---|---|---|
| 1777984255 | 21.11° C | 58% | 1012.7 hPa | - | - | - | - |
| 1777980655 | 19.44° C | 60% | 1012.1 hPa | - | - | - | - |
| 1777977055 | 19.44° C | 61% | 1011.7 hPa | - | - | - | - |
| 1777973455 | 19.44° C | 60% | 1011.6 hPa | - | - | - | - |
| 1777969854 | 20° C | 60% | 1011.6 hPa | - | - | - | - |
| 1777966254 | 20° C | 59% | 1012.1 hPa | - | - | - | - |
| 1777962654 | 20.56° C | 59% | 1012.5 hPa | - | - | - | - |
| 1777959054 | 21.11° C | 58% | 1012.9 hPa | - | - | - | - |
| 1777955454 | 21.11° C | 57% | 1013.2 hPa | - | - | - | - |
| 1777951854 | 21.67° C | 57% | 1013.8 hPa | - | - | - | - |
| 1777948254 | 21.67° C | 57% | 1014 hPa | - | - | - | - |
| 1777944654 | 22.22° C | 57% | 1013.8 hPa | - | - | - | - |
| 1777941054 | 22.22° C | 56% | 1013.2 hPa | - | - | - | - |
| 1777937453 | 23.33° C | 54% | 1012.1 hPa | - | - | - | - |
| 1777933853 | 24.44° C | 51% | 1011.1 hPa | - | - | - | - |
| 1777930253 | 25° C | 49% | 1010.5 hPa | - | - | - | - |
| 1777926653 | 24.44° C | 50% | 1009.8 hPa | - | - | - | - |
| 1777923053 | 25° C | 48% | 1009.8 hPa | - | - | - | - |
| 1777919453 | 25° C | 49% | 1010.5 hPa | - | - | - | - |
| 1777915853 | 25° C | 52% | 1011 hPa | - | - | - | - |
| 1777912253 | 23.33° C | 53% | 1011.5 hPa | - | - | - | - |
| 1777908653 | 24.44° C | 51% | 1012.2 hPa | - | - | - | - |
| 1777905053 | 24.44° C | 51% | 1012.9 hPa | - | - | - | - |
| 1777901452 | 22.22° C | 57% | 1013.2 hPa | - | - | - | - |
| 1777897852 | 21.11° C | 59% | 1013 hPa | - | - | - | - |
* Rain since midnight (hover to see other rain measurements)
** Current wind speed in m/s (hover to see current wind gust speed)